Time;durP1;ratioP1;P1;durP2;ratioP2;P2;SDS_P1;SDS_P2;PMS_P1;PMS_P2;Temp;Humidity;BMP_temperature;BMP_pressure;BME280_temperature;BME280_humidity;BME280_pressure;Samples;Min_cycle;Max_cycle;Signal;HPM_P1;HPM_P2
2021/12/17 00:04:59;;;;;;;19.92;7.05;;;;;;;4.49;100.00;103934.88;4863079;29;20203;-81
2021/12/17 00:07:26;;;;;;;14.57;6.30;;;;;;;4.37;100.00;103926.44;4877302;29;20180;-81
2021/12/17 00:09:53;;;;;;;14.30;6.28;;;;;;;4.39;100.00;103935.38;4864007;29;20170;-81
2021/12/17 00:12:21;;;;;;;13.63;6.53;;;;;;;4.48;100.00;103941.94;4862725;29;20244;-82
2021/12/17 00:14:49;;;;;;;15.93;6.40;;;;;;;4.43;100.00;103935.53;4863292;29;20293;-81
2021/12/17 00:17:20;;;;;;;16.00;6.55;;;;;;;4.55;100.00;103935.09;4876631;29;20323;-81
2021/12/17 00:52:22;;;;;;;19.83;7.22;;;;;;;4.52;100.00;103905.75;4862976;29;20350;-82
2021/12/17 00:54:47;;;;;;;19.45;7.55;;;;;;;4.53;100.00;103912.91;4862682;29;20646;-81
2021/12/17 00:57:30;;;;;;;16.45;7.07;;;;;;;4.57;100.00;103900.63;4862388;29;20216;-81
2021/12/17 00:59:56;;;;;;;22.05;8.15;;;;;;;4.53;100.00;103904.94;4877330;29;20178;-81
2021/12/17 01:02:34;;;;;;;14.02;6.57;;;;;;;4.56;100.00;103904.13;4876106;29;20194;-81
2021/12/17 01:05:10;;;;;;;16.63;6.75;;;;;;;4.54;100.00;103904.06;4876654;29;20194;-81
2021/12/17 01:07:41;;;;;;;14.82;6.45;;;;;;;4.60;100.00;103914.03;4876485;29;20237;-82
2021/12/17 01:10:15;;;;;;;22.85;8.07;;;;;;;4.59;100.00;103910.47;4861640;29;20158;-82
2021/12/17 01:12:51;;;;;;;20.52;8.23;;;;;;;4.58;100.00;103907.75;4876678;29;20214;-81
2021/12/17 01:15:37;;;;;;;20.63;7.57;;;;;;;4.68;100.00;103909.88;4863734;29;20190;-81
2021/12/17 01:18:36;;;;;;;19.52;7.45;;;;;;;4.77;100.00;103903.97;4879988;29;20269;-81
2021/12/17 01:21:22;;;;;;;26.90;8.52;;;;;;;4.67;100.00;103910.72;4879754;29;20279;-81
2021/12/17 01:36:04;;;;;;;23.50;7.28;;;;;;;4.72;100.00;103933.97;4866134;29;20263;-81
2021/12/17 01:41:46;;;;;;;17.13;7.03;;;;;;;4.63;100.00;103938.91;4867081;29;20170;-81
2021/12/17 01:44:10;;;;;;;20.80;7.53;;;;;;;4.65;100.00;103952.25;4865575;29;20174;-81
2021/12/17 01:46:38;;;;;;;21.20;7.05;;;;;;;4.65;100.00;103937.22;4865121;29;20198;-81
2021/12/17 01:55:40;;;;;;;22.88;7.72;;;;;;;4.64;100.00;103943.41;4880626;29;20174;-81
2021/12/17 02:00:43;;;;;;;25.25;8.13;;;;;;;4.61;100.00;103924.69;4880081;29;20163;-81
2021/12/17 02:03:10;;;;;;;25.83;8.23;;;;;;;4.71;100.00;103932.13;4859597;29;20214;-81
2021/12/17 02:05:37;;;;;;;23.70;8.68;;;;;;;4.62;100.00;103915.88;4857742;29;20281;-80
2021/12/17 02:08:03;;;;;;;15.40;7.78;;;;;;;4.57;100.00;103911.22;4857891;29;20179;-81
2021/12/17 02:32:07;;;;;;;17.63;7.90;;;;;;;4.62;100.00;103915.88;4859803;29;20203;-81
2021/12/17 02:37:16;;;;;;;20.48;8.07;;;;;;;4.58;100.00;103908.66;4859435;29;20235;-80
2021/12/17 02:42:24;;;;;;;19.05;7.82;;;;;;;4.65;100.00;103907.13;4871655;29;20206;-81
2021/12/17 02:45:36;;;;;;;29.75;8.15;;;;;;;4.62;100.00;103891.09;4859228;29;20791;-80
2021/12/17 02:48:07;;;;;;;18.77;7.68;;;;;;;4.56;100.00;103889.09;4858806;29;20198;-81
2021/12/17 02:50:39;;;;;;;23.35;7.40;;;;;;;4.57;100.00;103885.59;4859406;29;20211;-81
2021/12/17 02:53:07;;;;;;;23.30;7.32;;;;;;;4.58;100.00;103886.50;4845113;29;20667;-81
2021/12/17 02:55:38;;;;;;;17.27;7.40;;;;;;;4.61;100.00;103889.25;4845426;29;20258;-81
2021/12/17 02:58:05;;;;;;;16.45;6.90;;;;;;;4.61;100.00;103891.91;4859461;29;20163;-81
2021/12/17 03:00:32;;;;;;;19.05;8.27;;;;;;;4.58;100.00;103884.75;4840909;29;20273;-81
2021/12/17 03:02:58;;;;;;;16.98;7.40;;;;;;;4.57;100.00;103871.41;4845954;29;20206;-81
2021/12/17 03:05:25;;;;;;;28.15;9.30;;;;;;;4.62;100.00;103893.75;4875826;29;20178;-81
2021/12/17 03:07:51;;;;;;;20.80;8.45;;;;;;;4.59;100.00;103899.84;4863474;29;20170;-81
2021/12/17 03:10:17;;;;;;;15.73;8.27;;;;;;;4.64;100.00;103900.00;4877549;29;20504;-81
2021/12/17 03:25:48;;;;;;;28.83;10.77;;;;;;;4.62;100.00;103891.09;4877462;29;20194;-81
2021/12/17 03:28:13;;;;;;;25.35;9.95;;;;;;;4.54;100.00;103897.00;4877546;29;20261;-81
2021/12/17 03:30:39;;;;;;;20.25;9.20;;;;;;;4.62;100.00;103888.44;4877185;29;20322;-81
2021/12/17 03:33:05;;;;;;;21.42;8.75;;;;;;;4.55;100.00;103897.94;4877119;29;20202;-81
2021/12/17 03:35:30;;;;;;;14.43;8.13;;;;;;;4.54;100.00;103891.69;4877870;29;20233;-81
2021/12/17 03:37:56;;;;;;;20.30;8.23;;;;;;;4.66;100.00;103882.38;4877193;29;20182;-81
2021/12/17 03:40:22;;;;;;;23.33;9.73;;;;;;;4.59;100.00;103901.56;4878122;29;20227;-80
2021/12/17 03:42:51;;;;;;;19.60;9.27;;;;;;;4.57;100.00;103903.28;4862181;29;20209;-81
2021/12/17 03:45:19;;;;;;;21.55;9.00;;;;;;;4.59;100.00;103890.94;4876837;29;20175;-81
2021/12/17 03:47:52;;;;;;;22.52;9.30;;;;;;;4.56;100.00;103904.13;4862711;29;20193;-81
2021/12/17 03:50:21;;;;;;;17.55;8.65;;;;;;;4.58;100.00;103902.44;4877833;29;20314;-81
2021/12/17 03:52:46;;;;;;;19.02;9.32;;;;;;;4.58;100.00;103907.75;4877791;29;20205;-81
2021/12/17 03:55:12;;;;;;;25.67;9.38;;;;;;;4.63;100.00;103909.69;4861604;29;20210;-81
2021/12/17 03:57:42;;;;;;;23.08;8.93;;;;;;;4.63;100.00;103909.69;4876579;29;20178;-81
2021/12/17 04:00:11;;;;;;;21.63;9.18;;;;;;;4.52;100.00;103905.75;4877524;29;20170;-81
2021/12/17 04:02:44;;;;;;;19.88;8.75;;;;;;;4.58;100.00;103910.41;4849010;29;20593;-81
2021/12/17 04:05:17;;;;;;;21.48;8.93;;;;;;;4.59;100.00;103896.25;4868060;29;20182;-81
2021/12/17 04:08:05;;;;;;;22.33;9.13;;;;;;;4.68;100.00;103917.84;4826131;29;20210;-81
2021/12/17 04:11:16;;;;;;;24.23;9.05;;;;;;;4.54;100.00;103912.94;4829435;29;20214;-80
2021/12/17 04:13:51;;;;;;;18.33;8.00;;;;;;;4.60;100.00;103928.19;4839711;29;20207;-80
2021/12/17 04:16:22;;;;;;;15.20;8.45;;;;;;;4.59;100.00;103917.50;4840517;29;20195;-80
2021/12/17 04:18:48;;;;;;;19.70;8.82;;;;;;;4.54;100.00;103912.94;4825007;29;20176;-80
2021/12/17 04:21:14;;;;;;;18.15;9.25;;;;;;;4.57;100.00;103919.19;4840399;29;20183;-80
2021/12/17 04:23:45;;;;;;;31.35;10.35;;;;;;;4.54;100.00;103912.94;4826451;29;20545;-80
2021/12/17 04:26:13;;;;;;;24.00;9.15;;;;;;;4.53;100.00;103934.13;4826042;29;20247;-80
2021/12/17 04:28:48;;;;;;;22.55;8.85;;;;;;;4.53;100.00;103921.75;4828119;29;20183;-80
2021/12/17 04:31:18;;;;;;;26.70;8.63;;;;;;;4.56;100.00;103930.69;4842191;29;20175;-80
2021/12/17 04:33:46;;;;;;;21.70;8.52;;;;;;;4.61;100.00;103926.44;4842094;29;20210;-79
2021/12/17 04:36:17;;;;;;;25.10;9.90;;;;;;;4.59;100.00;103922.81;4842355;29;20248;-80
2021/12/17 04:38:43;;;;;;;21.17;9.30;;;;;;;4.60;100.00;103914.03;4842789;29;20186;-80
2021/12/17 04:43:53;;;;;;;19.98;8.55;;;;;;;4.60;100.00;103916.69;4841793;29;20168;-80
2021/12/17 04:46:31;;;;;;;23.95;9.18;;;;;;;4.58;100.00;103913.06;4843203;29;20202;-80
2021/12/17 04:57:30;;;;;;;23.90;8.95;;;;;;;4.52;100.00;103919.94;4843899;29;20190;-81
2021/12/17 04:59:59;;;;;;;22.60;8.45;;;;;;;4.54;100.00;103923.56;4851042;29;20199;-79
2021/12/17 05:02:26;;;;;;;19.75;7.97;;;;;;;4.48;100.00;103920.69;4863562;29;20209;-80
2021/12/17 05:05:06;;;;;;;17.45;8.80;;;;;;;4.44;100.00;103932.03;4862454;29;20175;-80
2021/12/17 05:07:38;;;;;;;20.73;8.95;;;;;;;4.45;100.00;103923.22;4863189;29;20224;-80
2021/12/17 05:10:22;;;;;;;21.00;8.48;;;;;;;4.44;100.00;103924.09;4871110;29;20189;-80
2021/12/17 05:18:28;;;;;;;15.95;8.25;;;;;;;4.53;100.00;103920.88;4865584;29;20159;-81
2021/12/17 05:21:04;;;;;;;16.05;6.90;;;;;;;4.44;100.00;103908.16;4864093;29;20181;-81
2021/12/17 05:23:41;;;;;;;11.38;6.28;;;;;;;4.31;100.00;103919.16;4864512;29;20182;-81
2021/12/17 05:26:11;;;;;;;14.18;6.97;;;;;;;4.28;100.00;103919.03;4880177;29;20695;-81
2021/12/17 05:28:42;;;;;;;12.60;6.13;;;;;;;4.37;100.00;103915.81;4864065;29;20181;-80
2021/12/17 05:31:08;;;;;;;14.77;6.38;;;;;;;4.31;100.00;103933.34;4878515;29;20178;-81
2021/12/17 05:33:40;;;;;;;12.95;7.45;;;;;;;4.27;100.00;103935.81;4877862;29;20212;-81
2021/12/17 05:36:05;;;;;;;16.35;6.80;;;;;;;4.30;100.00;103942.13;4878386;29;20182;-81
2021/12/17 05:38:31;;;;;;;12.15;6.78;;;;;;;4.26;100.00;103934.91;4878497;29;20551;-81
2021/12/17 05:40:57;;;;;;;17.48;7.03;;;;;;;4.25;100.00;103930.44;4878202;29;20190;-80
2021/12/17 05:43:23;;;;;;;15.15;6.40;;;;;;;4.25;100.00;103930.44;4878679;29;20194;-81
2021/12/17 05:48:20;;;;;;;18.65;8.10;;;;;;;4.10;100.00;103930.75;4877907;29;20174;-81
2021/12/17 05:50:47;;;;;;;13.55;6.70;;;;;;;4.11;100.00;103927.28;4878524;29;20178;-80
2021/12/17 05:53:13;;;;;;;16.85;7.97;;;;;;;4.09;100.00;103949.28;4878103;29;20296;-80
2021/12/17 05:55:39;;;;;;;15.88;7.55;;;;;;;4.10;100.00;103956.38;4878366;29;20648;-80
2021/12/17 05:58:06;;;;;;;18.40;7.63;;;;;;;4.15;100.00;103945.94;4877757;29;20280;-81
2021/12/17 06:00:32;;;;;;;17.05;7.78;;;;;;;4.06;100.00;103952.69;4876697;29;20227;-81
2021/12/17 06:03:19;;;;;;;21.57;9.77;;;;;;;4.14;100.00;103963.63;4877036;29;20436;-81
2021/12/17 06:05:57;;;;;;;24.15;9.10;;;;;;;4.10;100.00;103962.59;4879627;29;20186;-80
2021/12/17 06:08:22;;;;;;;18.10;8.90;;;;;;;4.13;100.00;103954.78;4864742;29;20185;-80
2021/12/17 06:10:49;;;;;;;17.27;7.72;;;;;;;4.11;100.00;103947.56;4881631;29;20242;-80
2021/12/17 06:13:14;;;;;;;17.23;8.27;;;;;;;4.16;100.00;103951.31;4882286;29;20270;-80
2021/12/17 06:15:40;;;;;;;18.60;7.95;;;;;;;4.23;100.00;103971.03;4866497;29;20170;-80
2021/12/17 06:18:05;;;;;;;11.95;8.00;;;;;;;4.23;100.00;103976.34;4864271;29;20225;-81
2021/12/17 06:20:31;;;;;;;17.27;7.80;;;;;;;4.05;100.00;103980.09;4878139;29;20178;-81
2021/12/17 06:23:00;;;;;;;18.40;7.80;;;;;;;4.02;100.00;103960.47;4878038;29;20585;-81
2021/12/17 06:25:25;;;;;;;16.30;7.28;;;;;;;4.05;100.00;103971.25;4879343;29;20203;-80
2021/12/17 06:27:51;;;;;;;16.73;7.22;;;;;;;3.99;100.00;103981.59;4877752;29;20185;-81
2021/12/17 06:30:20;;;;;;;12.30;6.40;;;;;;;4.01;100.00;103980.81;4878522;29;20182;-81
2021/12/17 06:32:46;;;;;;;14.82;6.50;;;;;;;3.99;100.00;103985.16;4878271;29;20209;-81
2021/12/17 06:35:14;;;;;;;12.18;7.50;;;;;;;3.99;100.00;103977.19;4878231;29;20216;-81
2021/12/17 06:37:40;;;;;;;15.73;7.40;;;;;;;4.06;100.00;103983.66;4878437;29;20246;-80
2021/12/17 06:40:09;;;;;;;12.73;7.15;;;;;;;4.03;100.00;103971.16;4874838;29;20171;-80
2021/12/17 06:42:34;;;;;;;17.70;8.52;;;;;;;4.00;100.00;103980.75;4845610;29;20579;-81
2021/12/17 06:45:05;;;;;;;13.80;7.53;;;;;;;4.10;100.00;103988.22;4843655;29;20183;-81
2021/12/17 06:47:34;;;;;;;16.80;7.93;;;;;;;4.07;100.00;103985.47;4843632;29;20254;-81
2021/12/17 06:59:34;;;;;;;22.77;10.00;;;;;;;4.06;100.00;103975.69;4848801;29;20669;-80
2021/12/17 07:23:04;;;;;;;26.95;13.25;;;;;;;4.19;100.00;103985.03;4879814;29;20198;-81
2021/12/17 07:31:59;;;;;;;25.70;12.63;;;;;;;4.22;100.00;103971.88;4878517;29;20171;-81
2021/12/17 07:33:36;;;;;;;26.00;12.18;;;;;;;4.32;100.00;103974.03;4877858;29;20285;-81
2021/12/17 07:36:22;;;;;;;39.17;15.48;;;;;;;4.28;100.00;103980.06;4857999;29;20182;-81
2021/12/17 07:38:51;;;;;;;26.75;14.35;;;;;;;4.31;100.00;103986.41;4843583;29;20217;-81
2021/12/17 07:41:45;;;;;;;46.30;13.75;;;;;;;4.30;100.00;103996.97;4847404;29;20301;-80
2021/12/17 07:44:31;;;;;;;27.98;14.50;;;;;;;4.33;100.00;103998.00;4845115;29;20247;-81
2021/12/17 07:47:16;;;;;;;27.45;15.50;;;;;;;4.34;100.00;104001.56;4843454;29;20606;-81
2021/12/17 07:49:48;;;;;;;41.13;26.00;;;;;;;4.39;100.00;104002.63;4843944;29;20254;-81
2021/12/17 07:52:15;;;;;;;37.67;21.67;;;;;;;4.36;100.00;104006.94;4858059;29;20314;-81
2021/12/17 07:54:40;;;;;;;28.45;15.23;;;;;;;4.39;100.00;104007.94;4843909;29;20657;-81
2021/12/17 07:57:06;;;;;;;29.80;14.15;;;;;;;4.46;100.00;104011.72;4860024;29;20282;-80
2021/12/17 07:59:34;;;;;;;23.38;11.73;;;;;;;4.53;100.00;104021.75;4844655;29;20202;-82
2021/12/17 08:02:00;;;;;;;26.17;12.45;;;;;;;4.48;100.00;104021.59;4843163;29;20210;-81
2021/12/17 08:04:33;;;;;;;26.33;11.88;;;;;;;4.45;100.00;104021.44;4845168;29;20901;-81
2021/12/17 08:07:01;;;;;;;22.15;11.45;;;;;;;4.46;100.00;104020.63;4876707;29;20182;-81
2021/12/17 08:09:31;;;;;;;27.02;10.65;;;;;;;4.38;100.00;104032.69;4880330;29;20190;-81
2021/12/17 08:11:57;;;;;;;19.40;9.43;;;;;;;4.42;100.00;104042.59;4864896;29;20289;-81
2021/12/17 08:14:30;;;;;;;18.48;8.68;;;;;;;4.52;100.00;104052.69;4877687;29;20231;-81
2021/12/17 08:25:09;;;;;;;18.70;9.70;;;;;;;4.52;100.00;104051.78;4877950;29;20184;-83
2021/12/17 08:32:52;;;;;;;21.08;10.13;;;;;;;4.60;100.00;104041.47;4878620;29;20205;-81
2021/12/17 08:35:19;;;;;;;25.45;8.85;;;;;;;4.49;100.00;104041.97;4839689;29;20297;-81
2021/12/17 08:37:47;;;;;;;12.88;6.75;;;;;;;4.44;100.00;104037.31;4839444;29;20186;-81
2021/12/17 08:40:13;;;;;;;16.23;7.65;;;;;;;4.55;100.00;104051.94;4849186;29;20175;-81
2021/12/17 08:42:45;;;;;;;13.30;7.07;;;;;;;4.54;100.00;104052.75;4843944;29;20885;-84
2021/12/17 08:45:11;;;;;;;15.63;7.40;;;;;;;4.49;100.00;104041.97;4857614;29;20182;-82
2021/12/17 08:47:47;;;;;;;11.65;6.55;;;;;;;4.56;100.00;104045.75;4844266;29;20194;-80
2021/12/17 08:50:18;;;;;;;14.23;7.05;;;;;;;4.56;100.00;104048.41;4842973;29;20187;-81
2021/12/17 08:52:44;;;;;;;12.73;5.80;;;;;;;4.50;100.00;104048.19;4858144;29;20210;-80
2021/12/17 08:55:10;;;;;;;11.07;6.18;;;;;;;4.50;100.00;104053.47;4843758;29;20705;-82
2021/12/17 08:57:37;;;;;;;10.23;5.93;;;;;;;4.50;100.00;104062.38;4843347;29;20179;-81
2021/12/17 09:00:07;;;;;;;13.20;5.57;;;;;;;4.52;100.00;104063.31;4858531;29;20274;-81
2021/12/17 09:02:47;;;;;;;10.10;5.75;;;;;;;4.59;100.00;104082.16;4845105;29;20190;-82
2021/12/17 09:05:32;;;;;;;10.65;6.15;;;;;;;4.59;100.00;104069.81;4858507;29;20171;-81
2021/12/17 09:07:57;;;;;;;11.77;6.72;;;;;;;4.52;100.00;104054.44;4858047;29;20191;-81
2021/12/17 09:10:40;;;;;;;9.68;6.10;;;;;;;4.59;100.00;104067.16;4842374;29;20187;-79
2021/12/17 09:13:07;;;;;;;10.85;6.38;;;;;;;4.57;100.00;104074.16;4843293;29;20231;-81
2021/12/17 09:15:33;;;;;;;11.48;6.28;;;;;;;4.65;100.00;104061.16;4843784;29;20256;-81
2021/12/17 09:18:16;;;;;;;10.82;6.65;;;;;;;4.72;100.00;104063.19;4843355;29;20228;-82
2021/12/17 09:20:54;;;;;;;11.43;6.78;;;;;;;4.76;100.00;104049.19;4843505;29;20178;-81
2021/12/17 09:23:28;;;;;;;11.98;6.60;;;;;;;4.81;100.00;104052.00;4858056;29;20282;-81
2021/12/17 09:25:53;;;;;;;11.43;6.28;;;;;;;4.78;100.00;104044.81;4858047;29;20217;-81
2021/12/17 09:28:19;;;;;;;12.27;6.95;;;;;;;4.86;100.00;104047.78;4842789;29;20183;-81
2021/12/17 09:30:50;;;;;;;11.32;6.47;;;;;;;4.85;100.00;104049.50;4844648;29;20175;-81
2021/12/17 09:33:15;;;;;;;9.63;6.20;;;;;;;4.86;100.00;104059.31;4843427;29;20379;-81
2021/12/17 09:35:41;;;;;;;12.10;7.00;;;;;;;4.85;100.00;104062.78;4844242;29;20197;-81
2021/12/17 09:38:06;;;;;;;9.73;5.32;;;;;;;4.93;100.00;104063.09;4847261;29;20210;-82
2021/12/17 09:40:32;;;;;;;9.38;5.60;;;;;;;4.97;100.00;104046.44;4845548;29;20211;-82
2021/12/17 09:42:58;;;;;;;8.70;5.70;;;;;;;5.03;100.00;104067.00;4846536;29;20286;-81
2021/12/17 09:45:24;;;;;;;11.02;6.50;;;;;;;5.01;100.00;104044.75;4846578;29;20197;-81
2021/12/17 09:47:49;;;;;;;10.55;4.82;;;;;;;5.13;100.00;104061.16;4845322;29;20194;-81
2021/12/17 09:50:18;;;;;;;10.00;5.55;;;;;;;5.14;100.00;104063.91;4846495;29;20179;-81
2021/12/17 09:52:44;;;;;;;8.82;4.57;;;;;;;5.04;100.00;104055.53;4846465;29;20207;-81
2021/12/17 09:55:11;;;;;;;7.05;4.57;;;;;;;5.12;100.00;104056.72;4845673;29;20207;-80
2021/12/17 09:57:36;;;;;;;6.85;4.88;;;;;;;5.18;100.00;104056.91;4846348;29;20194;-79
2021/12/17 10:00:16;;;;;;;7.95;4.78;;;;;;;5.16;100.00;104043.59;4846034;29;20179;-80
2021/12/17 10:02:44;;;;;;;8.05;4.65;;;;;;;5.22;100.00;104055.28;4860035;29;20684;-81
2021/12/17 10:05:16;;;;;;;7.55;4.40;;;;;;;5.30;100.00;104054.72;4846321;29;20167;-81
2021/12/17 10:07:44;;;;;;;6.63;4.38;;;;;;;5.33;100.00;104046.81;4844298;29;20177;-81
2021/12/17 10:10:10;;;;;;;6.07;4.15;;;;;;;5.35;100.00;104036.25;4845060;29;20190;-81
2021/12/17 10:12:37;;;;;;;7.25;4.70;;;;;;;5.40;100.00;104031.09;4844543;29;20217;-81
2021/12/17 10:15:18;;;;;;;7.22;4.47;;;;;;;5.47;100.00;104035.81;4843722;29;20211;-81
2021/12/17 10:18:01;;;;;;;6.35;4.90;;;;;;;5.40;100.00;104041.72;4846688;29;20208;-81
2021/12/17 10:20:31;;;;;;;6.85;4.03;;;;;;;5.44;100.00;104036.56;4861317;29;20227;-80
2021/12/17 10:23:05;;;;;;;6.38;4.45;;;;;;;5.47;100.00;104047.34;4845205;29;20289;-80
2021/12/17 10:25:33;;;;;;;5.95;4.15;;;;;;;5.49;100.00;104042.06;4846390;29;20165;-83
2021/12/17 10:28:01;;;;;;;5.55;3.95;;;;;;;5.59;100.00;104038.88;4844666;29;20174;-81
2021/12/17 10:30:28;;;;;;;9.85;4.30;;;;;;;5.48;100.00;104035.84;4846881;29;20535;-82
2021/12/17 10:32:57;;;;;;;4.70;3.58;;;;;;;5.55;100.00;104027.22;4847426;29;20249;-79
2021/12/17 10:35:31;;;;;;;6.13;3.38;;;;;;;5.61;100.00;104029.19;4844953;29;20206;-80
2021/12/17 10:38:02;;;;;;;5.70;3.70;;;;;;;5.62;100.00;104041.66;4845576;29;20178;-80
2021/12/17 10:40:31;;;;;;;6.80;4.00;;;;;;;5.64;100.00;104029.31;4845489;29;20171;-81
2021/12/17 10:49:33;;;;;;;8.95;6.20;;;;;;;5.71;100.00;104036.63;4843134;29;20689;-82
2021/12/17 10:54:18;;;;;;;5.95;4.25;;;;;;;5.75;100.00;104037.63;4865324;29;20265;-81
2021/12/17 10:56:54;;;;;;;8.90;5.57;;;;;;;5.67;100.00;104037.38;4862279;29;20269;-81
2021/12/17 10:59:22;;;;;;;7.53;4.97;;;;;;;5.78;100.00;104059.03;4853275;29;20211;-81
2021/12/17 11:01:55;;;;;;;7.63;5.28;;;;;;;5.75;100.00;104046.53;4848994;29;20629;-81
2021/12/17 11:04:29;;;;;;;5.20;4.32;;;;;;;5.87;100.00;104047.78;4843972;29;20203;-82
2021/12/17 11:06:59;;;;;;;5.63;3.85;;;;;;;5.87;100.00;104055.75;4845661;29;20238;-82
2021/12/17 11:09:36;;;;;;;5.68;3.95;;;;;;;6.01;100.00;104054.47;4845864;29;20186;-81
2021/12/17 11:12:22;;;;;;;7.25;4.40;;;;;;;5.95;100.00;104048.97;4845744;29;20265;-81
2021/12/17 11:14:48;;;;;;;4.35;3.40;;;;;;;5.98;100.00;104041.97;4844297;29;20229;-81
2021/12/17 11:17:18;;;;;;;4.65;3.58;;;;;;;5.97;100.00;104032.22;4848288;29;20183;-82
2021/12/17 11:19:44;;;;;;;4.18;3.38;;;;;;;5.97;100.00;104021.56;4849580;29;20190;-82
2021/12/17 11:22:10;;;;;;;5.13;3.60;;;;;;;5.98;100.00;104041.09;4846679;29;20251;-82
2021/12/17 11:24:37;;;;;;;3.58;3.05;;;;;;;6.05;100.00;104026.22;4847258;29;20167;-82
2021/12/17 11:27:06;;;;;;;2.20;2.03;;;;;;;6.03;100.00;104022.59;4845010;29;20251;-81
2021/12/17 11:29:33;;;;;;;2.90;2.58;;;;;;;6.06;100.00;104028.94;4845911;29;20210;-81
2021/12/17 11:32:00;;;;;;;2.40;2.13;;;;;;;6.07;100.00;104022.75;4850073;29;20278;-81
2021/12/17 11:34:27;;;;;;;3.70;2.55;;;;;;;6.04;100.00;104025.31;4861101;29;20217;-80
2021/12/17 11:36:53;;;;;;;2.72;2.30;;;;;;;6.04;100.00;104025.31;4846159;29;20591;-82
2021/12/17 11:39:35;;;;;;;3.80;2.53;;;;;;;6.07;100.00;104022.75;4848755;29;20208;-81
2021/12/17 11:42:18;;;;;;;3.08;2.28;;;;;;;6.07;100.00;104021.84;4845557;29;20277;-81
2021/12/17 11:44:53;;;;;;;3.05;2.53;;;;;;;6.15;100.00;104005.25;4845942;29;20218;-82
2021/12/17 11:47:19;;;;;;;3.53;2.50;;;;;;;6.17;100.00;104005.31;4844828;29;20182;-82
2021/12/17 11:49:49;;;;;;;3.97;2.90;;;;;;;6.05;100.00;104005.81;4844024;29;20934;-81
2021/12/17 11:52:34;;;;;;;3.67;2.97;;;;;;;6.13;100.00;104000.75;4843772;29;20278;-80
2021/12/17 11:55:32;;;;;;;2.78;2.58;;;;;;;6.16;100.00;103984.84;4847165;29;20191;-81
2021/12/17 11:58:02;;;;;;;3.90;3.42;;;;;;;6.16;100.00;103996.41;4844266;29;20167;-81
2021/12/17 12:00:48;;;;;;;3.60;3.00;;;;;;;6.17;100.00;103982.25;4844625;29;20202;-81
2021/12/17 12:03:19;;;;;;;4.53;3.70;;;;;;;6.24;100.00;103990.44;4844449;29;20580;-80
2021/12/17 12:05:47;;;;;;;6.32;4.32;;;;;;;6.21;100.00;104006.28;4842679;29;20183;-81
2021/12/17 12:08:29;;;;;;;4.78;3.50;;;;;;;6.26;100.00;104002.94;4842749;29;20171;-81
2021/12/17 12:11:16;;;;;;;4.30;3.10;;;;;;;6.29;100.00;104008.34;4846336;29;20194;-82
2021/12/17 12:13:45;;;;;;;3.92;3.55;;;;;;;6.30;100.00;104022.59;4860483;29;20262;-81
2021/12/17 12:16:16;;;;;;;4.20;3.40;;;;;;;6.32;100.00;104026.16;4848982;29;20171;-81
2021/12/17 12:18:50;;;;;;;5.75;3.38;;;;;;;6.32;100.00;104029.75;4843736;29;20179;-81
2021/12/17 12:21:24;;;;;;;5.22;3.80;;;;;;;6.36;100.00;104026.34;4858959;29;20647;-81
2021/12/17 12:23:51;;;;;;;4.57;3.47;;;;;;;6.38;100.00;104024.63;4858348;29;20175;-81
2021/12/17 12:26:25;;;;;;;4.75;4.18;;;;;;;6.32;100.00;104031.50;4858394;29;20554;-80
2021/12/17 12:29:03;;;;;;;5.03;4.30;;;;;;;6.37;100.00;104027.22;4843882;29;20174;-81
2021/12/17 12:31:32;;;;;;;5.38;4.75;;;;;;;6.41;100.00;104023.81;4843899;29;20194;-81
2021/12/17 12:34:00;;;;;;;4.53;3.78;;;;;;;6.46;100.00;104016.84;4860089;29;20318;-80
2021/12/17 12:37:03;;;;;;;6.10;4.00;;;;;;;6.46;100.00;104018.63;4860455;29;20261;-80
2021/12/17 12:39:35;;;;;;;4.20;3.70;;;;;;;6.48;100.00;104004.47;4844579;29;20186;-80
2021/12/17 12:42:07;;;;;;;5.38;3.70;;;;;;;6.43;100.00;104000.78;4845875;29;20190;-81
2021/12/17 12:44:42;;;;;;;3.80;3.45;;;;;;;6.50;100.00;104000.13;4858175;29;20197;-81
2021/12/17 12:47:09;;;;;;;3.95;3.30;;;;;;;6.51;100.00;103996.56;4844548;29;20194;-80
2021/12/17 12:49:50;;;;;;;6.80;4.00;;;;;;;6.53;100.00;104010.84;4844779;29;20178;-80
2021/12/17 12:52:32;;;;;;;5.68;3.97;;;;;;;6.49;100.00;104010.72;4860233;29;20672;-80
2021/12/17 12:55:13;;;;;;;4.53;3.58;;;;;;;6.49;100.00;104008.94;4843683;29;20206;-80
2021/12/17 12:57:58;;;;;;;5.82;3.80;;;;;;;6.48;100.00;104006.25;4843816;29;20182;-82
2021/12/17 13:00:30;;;;;;;4.30;3.65;;;;;;;6.46;100.00;104011.53;4857386;29;20201;-81
2021/12/17 13:03:09;;;;;;;4.72;4.05;;;;;;;6.48;100.00;104001.81;4857397;29;20244;-81
2021/12/17 13:05:36;;;;;;;3.72;3.40;;;;;;;6.55;100.00;104001.13;4843585;29;20190;-82
2021/12/17 13:08:05;;;;;;;4.25;3.85;;;;;;;6.53;100.00;104005.50;4843172;29;20586;-82
2021/12/17 13:10:38;;;;;;;6.25;4.65;;;;;;;6.50;100.00;104000.13;4844182;29;20190;-80
2021/12/17 13:15:46;;;;;;;6.82;4.40;;;;;;;6.55;100.00;104022.44;4863511;29;20230;-81
2021/12/17 13:24:16;;;;;;;4.65;3.83;;;;;;;6.56;100.00;104018.06;4848681;29;20246;-81
2021/12/17 13:27:09;;;;;;;5.22;4.72;;;;;;;6.62;100.00;104015.53;4846239;29;20185;-82
2021/12/17 13:29:38;;;;;;;5.25;4.75;;;;;;;6.62;100.00;104022.63;4848129;29;20166;-81
2021/12/17 13:32:03;;;;;;;6.13;4.90;;;;;;;6.61;100.00;104016.41;4847807;29;20739;-82
2021/12/17 13:34:32;;;;;;;6.72;4.38;;;;;;;6.60;100.00;104022.59;4861150;29;20210;-82
2021/12/17 13:37:03;;;;;;;4.90;4.35;;;;;;;6.63;100.00;104016.47;4847234;29;20179;-81
2021/12/17 13:39:49;;;;;;;7.07;4.60;;;;;;;6.62;100.00;104018.19;4860445;29;20339;-81
2021/12/17 13:42:23;;;;;;;4.47;3.78;;;;;;;6.69;100.00;104016.63;4861964;29;20688;-81
2021/12/17 13:44:54;;;;;;;5.82;4.55;;;;;;;6.64;100.00;104002.28;4865463;29;20166;-82
2021/12/17 13:47:24;;;;;;;4.75;4.25;;;;;;;6.66;100.00;104011.22;4864325;29;20189;-83
2021/12/17 13:49:59;;;;;;;6.82;5.10;;;;;;;6.61;100.00;104027.06;4865090;29;20655;-81
2021/12/17 13:52:28;;;;;;;4.80;4.20;;;;;;;6.68;100.00;104007.72;4864439;29;20738;-81
2021/12/17 13:54:55;;;;;;;6.05;5.03;;;;;;;6.65;100.00;104007.66;4866506;29;20760;-81
2021/12/17 13:57:28;;;;;;;6.85;5.03;;;;;;;6.63;100.00;104005.81;4864772;29;20182;-81
2021/12/17 14:00:06;;;;;;;6.70;4.97;;;;;;;6.68;100.00;104009.50;4882003;29;20185;-81
2021/12/17 14:02:39;;;;;;;7.53;5.20;;;;;;;6.67;100.00;104010.34;4861318;29;20217;-81
2021/12/17 14:05:20;;;;;;;5.50;4.50;;;;;;;6.68;100.00;103998.84;4846020;29;20178;-81
2021/12/17 14:07:50;;;;;;;7.85;5.28;;;;;;;6.65;100.00;103999.66;4861336;29;20250;-82
2021/12/17 14:10:19;;;;;;;6.90;5.07;;;;;;;6.71;100.00;103991.84;4845904;29;20181;-82
2021/12/17 14:12:45;;;;;;;5.20;4.47;;;;;;;6.73;100.00;103978.56;4845378;29;20210;-81
2021/12/17 14:15:15;;;;;;;7.05;5.75;;;;;;;6.70;100.00;103981.16;4848557;29;20210;-82
2021/12/17 14:17:43;;;;;;;5.35;4.57;;;;;;;6.83;100.00;103990.41;4847997;29;20183;-82
2021/12/17 14:20:22;;;;;;;5.32;4.63;;;;;;;6.76;100.00;103989.31;4847844;29;20252;-81
2021/12/17 14:22:53;;;;;;;5.78;5.13;;;;;;;6.72;100.00;103988.31;4847470;29;20259;-82
2021/12/17 14:25:32;;;;;;;7.15;5.18;;;;;;;6.73;100.00;103983.88;4848577;29;20168;-82
2021/12/17 14:28:22;;;;;;;6.47;4.97;;;;;;;6.74;100.00;103985.72;4848055;29;20278;-82
2021/12/17 14:31:01;;;;;;;7.40;5.30;;;;;;;6.73;100.00;103997.19;4862148;29;20244;-82
2021/12/17 14:33:41;;;;;;;6.80;6.03;;;;;;;6.75;100.00;103996.38;4862208;29;20207;-82
2021/12/17 14:36:10;;;;;;;8.82;6.05;;;;;;;6.71;100.00;104021.16;4861420;29;20204;-81
2021/12/17 14:38:54;;;;;;;7.65;6.20;;;;;;;6.74;100.00;104002.59;4864086;29;20191;-80
2021/12/17 14:41:28;;;;;;;7.78;6.63;;;;;;;6.73;100.00;104010.53;4849663;29;20167;-81
2021/12/17 14:44:07;;;;;;;7.97;6.47;;;;;;;6.73;100.00;104014.09;4846443;29;20178;-82
2021/12/17 14:47:07;;;;;;;6.70;6.03;;;;;;;6.73;100.00;104014.09;4857450;29;20193;-80